Time;durP1;ratioP1;P1;durP2;ratioP2;P2;SDS_P1;SDS_P2;PMS_P1;PMS_P2;Temp;Humidity;BMP_temperature;BMP_pressure;BME280_temperature;BME280_humidity;BME280_pressure;Samples;Min_cycle;Max_cycle;Signal;HPM_P1;HPM_P2
2023/11/20 00:01:31;;;;;;;4.72;0.90;;;;;;;7.41;63.71;100334.78;5025659;28;20039;-67
2023/11/20 00:03:57;;;;;;;5.35;1.70;;;;;;;7.43;63.75;100330.38;5024618;28;20052;-67
2023/11/20 00:06:22;;;;;;;5.78;0.93;;;;;;;7.40;63.81;100338.25;5028288;28;20380;-67
2023/11/20 00:08:48;;;;;;;7.10;1.30;;;;;;;7.39;63.98;100324.41;5023577;28;20057;-66
2023/11/20 00:11:15;;;;;;;6.45;0.73;;;;;;;7.40;63.81;100331.34;5024328;28;20219;-67
2023/11/20 00:13:41;;;;;;;7.53;1.60;;;;;;;7.28;64.15;100337.78;5026468;28;20118;-67
2023/11/20 00:16:06;;;;;;;10.50;1.70;;;;;;;7.28;64.15;100332.59;5023940;28;20383;-66
2023/11/20 00:18:32;;;;;;;9.88;1.27;;;;;;;7.28;63.88;100324.78;5024906;28;20052;-67
2023/11/20 00:20:57;;;;;;;9.02;1.52;;;;;;;7.28;63.89;100336.94;5024958;28;20525;-68
2023/11/20 00:23:23;;;;;;;4.00;0.98;;;;;;;7.27;63.70;100336.09;5028932;28;20370;-67
2023/11/20 00:25:48;;;;;;;3.17;1.20;;;;;;;7.26;63.63;100331.78;5028637;28;20064;-67
2023/11/20 00:28:14;;;;;;;1.55;1.02;;;;;;;7.26;63.47;100333.56;5027767;28;20049;-67
2023/11/20 00:30:39;;;;;;;2.85;1.15;;;;;;;7.23;63.72;100331.06;5031984;28;20474;-68
2023/11/20 00:33:05;;;;;;;2.38;1.40;;;;;;;7.24;63.72;100333.59;5026708;28;20071;-68
2023/11/20 00:35:30;;;;;;;6.80;1.23;;;;;;;7.23;64.09;100333.66;5031321;28;20111;-70
2023/11/20 00:37:56;;;;;;;3.58;1.15;;;;;;;7.28;64.09;100331.75;5028692;28;20660;-69
2023/11/20 00:40:22;;;;;;;6.32;1.40;;;;;;;7.28;63.61;100332.59;5030500;28;20028;-70
2023/11/20 00:42:48;;;;;;;5.25;1.77;;;;;;;7.29;63.79;100334.31;5031062;28;20523;-69
2023/11/20 00:45:14;;;;;;;8.07;1.48;;;;;;;7.29;63.58;100334.31;5029716;28;20040;-69
2023/11/20 00:47:39;;;;;;;5.30;2.00;;;;;;;7.29;63.69;100342.09;5026156;28;20415;-69
2023/11/20 00:50:05;;;;;;;2.60;1.08;;;;;;;7.33;63.69;100350.63;5027307;28;20044;-69
2023/11/20 00:52:31;;;;;;;11.13;1.02;;;;;;;7.35;63.84;100342.78;5032181;28;20069;-71
2023/11/20 00:55:00;;;;;;;6.35;1.75;;;;;;;7.31;64.18;100345.50;5039434;28;20336;-72
2023/11/20 00:57:27;;;;;;;4.82;2.25;;;;;;;7.33;64.03;100351.50;5030646;28;20497;-72
2023/11/20 00:59:53;;;;;;;7.03;2.15;;;;;;;7.35;64.06;100350.56;5013287;28;20040;-73
2023/11/20 01:02:19;;;;;;;4.70;1.75;;;;;;;7.44;63.81;100358.06;5025100;28;20048;-74
2023/11/20 01:04:45;;;;;;;5.68;1.85;;;;;;;7.31;64.46;100368.91;5029228;28;20044;-75
2023/11/20 01:07:10;;;;;;;3.60;1.98;;;;;;;7.26;64.54;100360.38;5028752;28;20045;-74
2023/11/20 01:09:36;;;;;;;5.63;2.22;;;;;;;7.30;64.69;100372.38;5030896;28;20043;-77
2023/11/20 01:12:01;;;;;;;4.65;1.77;;;;;;;7.44;64.42;100365.84;5031491;28;20051;-66
2023/11/20 01:14:27;;;;;;;7.45;2.72;;;;;;;7.47;64.23;100369.22;5032538;28;20049;-76
2023/11/20 01:16:52;;;;;;;7.57;2.25;;;;;;;7.54;64.13;100362.03;5028758;28;20047;-70
2023/11/20 01:19:19;;;;;;;9.63;2.60;;;;;;;7.57;64.33;100368.91;5028241;28;20102;-71
2023/11/20 01:21:45;;;;;;;8.65;3.22;;;;;;;7.61;63.78;100365.31;5012395;28;20085;-70
2023/11/20 01:24:11;;;;;;;6.78;2.70;;;;;;;7.62;63.67;100362.63;5030053;28;20506;-70
2023/11/20 01:26:37;;;;;;;4.95;1.85;;;;;;;7.66;63.87;100369.41;5026783;28;20067;-71
2023/11/20 01:29:02;;;;;;;8.45;2.35;;;;;;;7.68;63.98;100369.38;5027040;28;20131;-70
2023/11/20 01:31:29;;;;;;;6.18;2.33;;;;;;;7.71;63.79;100370.13;5030699;28;20086;-70
2023/11/20 01:33:55;;;;;;;9.82;3.35;;;;;;;7.74;63.80;100372.59;5026449;28;20057;-67
2023/11/20 01:36:20;;;;;;;6.80;2.50;;;;;;;7.71;63.79;100372.72;5029016;28;21528;-70
2023/11/20 01:38:46;;;;;;;7.85;3.45;;;;;;;7.69;63.93;100371.06;5027461;28;20124;-70
2023/11/20 01:41:12;;;;;;;8.05;4.05;;;;;;;7.73;63.94;100368.31;5008578;28;20481;-69
2023/11/20 01:43:38;;;;;;;10.57;4.03;;;;;;;7.74;63.92;100372.59;5028675;28;20056;-70
2023/11/20 01:46:08;;;;;;;9.13;4.13;;;;;;;7.78;63.89;100367.28;5025564;28;20037;-70
2023/11/20 01:48:34;;;;;;;15.57;5.20;;;;;;;7.78;63.67;100372.47;5026531;28;20655;-70
2023/11/20 01:51:00;;;;;;;13.00;5.80;;;;;;;7.79;63.86;100371.59;5011876;28;20052;-69
2023/11/20 01:53:28;;;;;;;15.52;5.05;;;;;;;7.79;63.88;100371.59;5025160;28;20049;-68
2023/11/20 01:55:54;;;;;;;10.30;5.32;;;;;;;7.80;64.03;100370.69;5026716;28;20044;-68
2023/11/20 01:58:23;;;;;;;14.45;4.65;;;;;;;7.76;64.05;100379.50;5028992;28;21140;-69
2023/11/20 02:00:48;;;;;;;10.93;5.57;;;;;;;7.81;63.86;100382.81;5022378;28;20131;-66
2023/11/20 02:03:14;;;;;;;20.42;5.30;;;;;;;7.80;63.80;100381.09;5027091;28;20475;-67
2023/11/20 02:05:40;;;;;;;14.02;5.43;;;;;;;7.81;63.72;100375.84;5021222;28;20091;-68
2023/11/20 02:08:05;;;;;;;14.88;4.35;;;;;;;7.81;64.19;100380.19;5022457;28;20041;-68
2023/11/20 02:10:33;;;;;;;9.50;5.00;;;;;;;7.82;64.01;100374.06;5018991;28;20041;-67
2023/11/20 02:12:59;;;;;;;7.75;5.03;;;;;;;7.85;63.74;100377.44;5035192;28;20032;-68
2023/11/20 02:15:25;;;;;;;13.82;6.20;;;;;;;7.86;63.66;100380.88;5041485;28;20569;-68
2023/11/20 02:17:50;;;;;;;12.65;5.93;;;;;;;7.90;63.83;100379.84;5030965;28;20075;-72
2023/11/20 02:20:16;;;;;;;15.35;6.03;;;;;;;7.88;63.68;100373.84;5009403;28;20407;-72
2023/11/20 02:22:42;;;;;;;8.95;5.05;;;;;;;7.87;63.71;100378.22;5009840;28;20047;-73
2023/11/20 02:25:08;;;;;;;11.93;5.55;;;;;;;7.91;63.83;100378.94;5008524;28;20048;-74
2023/11/20 02:27:45;;;;;;;11.13;5.82;;;;;;;7.97;63.64;100380.47;5012904;28;20029;-74
2023/11/20 02:30:11;;;;;;;12.10;6.38;;;;;;;7.94;63.82;100376.25;5025481;28;20045;-74
2023/11/20 02:32:36;;;;;;;13.30;5.25;;;;;;;7.88;63.80;100377.31;5027224;28;20036;-74
2023/11/20 02:35:02;;;;;;;12.50;5.63;;;;;;;7.88;64.00;100374.69;5012199;28;20395;-70
2023/11/20 02:37:31;;;;;;;10.18;5.43;;;;;;;7.91;63.56;100374.59;5026164;28;20037;-70
2023/11/20 02:39:56;;;;;;;12.90;6.28;;;;;;;7.87;63.83;100374.75;5025686;28;20267;-70
2023/11/20 02:42:22;;;;;;;15.30;6.50;;;;;;;7.85;63.69;100373.97;5026791;28;20029;-71
2023/11/20 02:44:48;;;;;;;9.77;4.90;;;;;;;7.91;63.92;100368.53;5011385;28;20052;-68
2023/11/20 02:47:14;;;;;;;15.65;6.07;;;;;;;7.92;63.92;100363.28;5027718;28;20498;-71
2023/11/20 02:49:39;;;;;;;11.20;5.55;;;;;;;7.96;63.85;100371.84;5029456;28;20055;-71
2023/11/20 02:52:06;;;;;;;11.88;5.63;;;;;;;7.98;63.68;100369.16;5026080;28;20191;-70
2023/11/20 02:54:33;;;;;;;18.05;5.35;;;;;;;8.00;63.86;100373.38;5027821;28;20132;-71
2023/11/20 02:57:00;;;;;;;18.17;6.18;;;;;;;7.94;63.80;100378.84;5027734;28;20037;-69
2023/11/20 02:59:27;;;;;;;16.73;6.32;;;;;;;7.92;63.99;100365.03;5013439;28;20045;-70
2023/11/20 03:01:54;;;;;;;16.95;6.38;;;;;;;7.90;64.16;100372.91;5029053;28;20138;-69
2023/11/20 03:04:20;;;;;;;14.23;5.60;;;;;;;7.93;63.88;100362.34;5023595;28;20048;-69
2023/11/20 03:06:46;;;;;;;15.88;6.32;;;;;;;7.96;63.90;100369.22;5003972;28;20411;-69
2023/11/20 03:09:12;;;;;;;11.85;5.47;;;;;;;7.99;64.05;100374.31;5023379;28;20688;-68
2023/11/20 03:11:38;;;;;;;16.33;6.57;;;;;;;7.99;63.61;100371.72;5026915;28;20059;-69
2023/11/20 03:14:03;;;;;;;11.18;5.05;;;;;;;8.00;63.61;100376.00;5024131;28;20111;-69
2023/11/20 03:16:30;;;;;;;12.70;5.85;;;;;;;8.03;63.61;100370.69;5022800;28;20037;-69
2023/11/20 03:18:57;;;;;;;14.00;6.82;;;;;;;8.01;63.52;100374.25;5024334;28;20697;-70
2023/11/20 03:21:24;;;;;;;12.13;5.65;;;;;;;8.01;63.64;100376.88;5027689;28;20060;-68
2023/11/20 03:23:50;;;;;;;13.82;6.10;;;;;;;7.97;63.91;100378.72;5027115;28;20025;-69
2023/11/20 03:26:21;;;;;;;21.73;6.00;;;;;;;7.91;64.26;100374.59;5023158;28;20068;-69
2023/11/20 03:28:47;;;;;;;14.80;6.63;;;;;;;7.91;64.06;100379.81;5028209;28;20520;-69
2023/11/20 03:31:12;;;;;;;19.52;7.72;;;;;;;7.95;63.81;100377.94;5042537;28;20036;-69
2023/11/20 03:33:38;;;;;;;10.68;5.50;;;;;;;7.99;63.68;100376.91;5028211;28;20670;-69
2023/11/20 03:36:04;;;;;;;11.07;6.03;;;;;;;8.01;63.66;100377.72;5031345;28;20466;-68
2023/11/20 03:38:29;;;;;;;46.13;6.63;;;;;;;8.00;63.58;100380.34;5022540;28;20065;-68
2023/11/20 03:40:55;;;;;;;18.48;5.78;;;;;;;7.95;63.87;100377.94;5029628;28;20543;-75
2023/11/20 03:43:21;;;;;;;29.40;6.68;;;;;;;7.90;63.93;100379.84;5029126;28;20037;-76
2023/11/20 03:45:47;;;;;;;11.30;5.70;;;;;;;7.93;64.03;100390.16;5024872;28;20132;-66
2023/11/20 03:48:13;;;;;;;30.48;7.50;;;;;;;7.86;64.19;100392.13;5025974;28;20067;-74
2023/11/20 03:50:38;;;;;;;12.50;6.22;;;;;;;7.92;63.90;100391.06;5030269;28;20033;-74
2023/11/20 03:53:04;;;;;;;11.98;6.32;;;;;;;7.96;64.16;100384.84;5026663;28;20554;-74
2023/11/20 03:55:29;;;;;;;14.27;5.57;;;;;;;7.96;63.85;100395.25;5009132;28;21344;-66
2023/11/20 03:57:55;;;;;;;16.95;7.05;;;;;;;7.88;64.33;100394.69;5028380;28;20052;-66
2023/11/20 04:00:20;;;;;;;28.15;6.72;;;;;;;7.79;64.41;100395.00;5028885;28;20041;-66
2023/11/20 04:02:48;;;;;;;11.32;5.25;;;;;;;7.93;64.03;100397.94;5032901;28;20041;-66
2023/11/20 04:05:13;;;;;;;36.08;6.65;;;;;;;7.84;64.12;100398.28;5025691;28;20403;-65
2023/11/20 04:07:39;;;;;;;18.08;6.35;;;;;;;7.88;64.35;100395.53;5030297;28;20040;-66
2023/11/20 04:10:05;;;;;;;34.30;7.38;;;;;;;7.92;64.22;100397.09;5026378;28;20258;-66
2023/11/20 04:12:31;;;;;;;21.38;7.85;;;;;;;7.87;64.31;100391.22;5029066;28;20045;-66
2023/11/20 04:14:56;;;;;;;34.13;7.05;;;;;;;7.80;64.47;100394.09;5029242;28;20502;-77
2023/11/20 04:17:21;;;;;;;25.23;6.35;;;;;;;7.88;63.92;100399.88;5032213;28;20021;-75
2023/11/20 04:19:51;;;;;;;18.17;7.47;;;;;;;7.81;64.31;100398.41;5033218;28;20032;-76
2023/11/20 04:22:16;;;;;;;25.08;6.22;;;;;;;7.81;64.44;100403.63;5030931;28;20036;-77
2023/11/20 04:24:42;;;;;;;33.33;5.95;;;;;;;7.62;65.25;100399.03;5035292;28;20086;-76
2023/11/20 04:27:08;;;;;;;14.85;4.85;;;;;;;7.81;64.77;100408.81;5031144;28;20561;-77
2023/11/20 04:29:35;;;;;;;19.80;5.93;;;;;;;7.76;64.73;100406.38;5020889;28;20017;-76
2023/11/20 04:32:01;;;;;;;11.68;5.28;;;;;;;7.90;64.28;100403.28;5033624;28;20050;-77
2023/11/20 04:34:26;;;;;;;15.35;4.38;;;;;;;7.88;64.59;100405.94;5013963;28;20575;-79
2023/11/20 04:36:52;;;;;;;16.98;5.18;;;;;;;7.83;64.21;100404.41;5034477;28;20595;-69
2023/11/20 04:39:17;;;;;;;7.38;4.72;;;;;;;7.89;64.13;100406.75;5025431;28;20586;-70
2023/11/20 04:41:43;;;;;;;6.32;3.60;;;;;;;7.94;63.94;100408.31;5034094;28;20025;-69
2023/11/20 04:44:08;;;;;;;26.63;4.65;;;;;;;7.92;63.92;100406.69;5028791;28;20102;-67
2023/11/20 04:46:34;;;;;;;12.18;5.03;;;;;;;7.91;64.41;100405.84;5030183;28;20033;-66
2023/11/20 04:49:00;;;;;;;12.88;4.68;;;;;;;7.91;64.37;100411.03;5027343;28;20037;-67
2023/11/20 04:51:25;;;;;;;15.18;3.83;;;;;;;7.85;64.15;100406.03;5024269;28;20131;-67
2023/11/20 04:53:51;;;;;;;9.20;3.72;;;;;;;7.89;64.09;100405.03;5030332;28;20039;-68
2023/11/20 04:56:18;;;;;;;28.63;3.78;;;;;;;7.84;64.23;100406.09;5027852;28;20051;-67
2023/11/20 04:58:44;;;;;;;8.90;3.58;;;;;;;7.85;64.33;100403.44;5028209;28;20632;-67
2023/11/20 05:01:11;;;;;;;8.23;3.17;;;;;;;7.88;64.20;100392.06;5030341;28;20449;-74
2023/11/20 05:03:37;;;;;;;16.55;3.33;;;;;;;7.90;64.40;100395.47;5029234;28;20485;-72
2023/11/20 05:06:06;;;;;;;6.57;2.67;;;;;;;7.91;63.97;100394.56;5031548;28;20032;-74
2023/11/20 05:08:31;;;;;;;21.95;3.83;;;;;;;7.88;64.15;100405.09;5028870;28;20047;-74
2023/11/20 05:10:57;;;;;;;9.05;2.97;;;;;;;7.81;64.11;100399.25;5031809;28;20506;-73
2023/11/20 05:13:22;;;;;;;28.23;3.00;;;;;;;7.77;64.38;100404.63;5027737;28;20127;-74
2023/11/20 05:15:48;;;;;;;11.77;3.25;;;;;;;7.81;64.50;100414.03;5012326;28;20116;-70
2023/11/20 05:18:13;;;;;;;50.35;3.63;;;;;;;7.64;64.63;100406.78;5030788;28;20124;-69
2023/11/20 05:20:39;;;;;;;7.97;2.80;;;;;;;7.73;64.35;100407.34;5028633;28;20119;-71
2023/11/20 05:23:04;;;;;;;38.22;3.42;;;;;;;7.60;64.44;100407.81;5029377;28;20433;-70
2023/11/20 05:25:30;;;;;;;6.10;2.65;;;;;;;7.73;64.23;100409.06;5029796;28;20033;-70
2023/11/20 05:27:55;;;;;;;27.02;3.33;;;;;;;7.73;64.17;100404.75;5013229;28;20551;-70
2023/11/20 05:30:21;;;;;;;21.92;2.72;;;;;;;7.60;64.53;100411.28;5030296;28;20449;-70
2023/11/20 05:32:46;;;;;;;7.05;2.75;;;;;;;7.64;64.49;100402.44;5030369;28;20090;-70
2023/11/20 05:35:13;;;;;;;5.57;1.67;;;;;;;7.71;64.24;100409.16;5029211;28;20388;-70
2023/11/20 05:37:39;;;;;;;5.28;2.00;;;;;;;7.73;63.94;100411.66;5030178;28;20404;-70
2023/11/20 05:40:06;;;;;;;9.95;2.42;;;;;;;7.63;64.19;100412.91;5028557;28;20287;-70
2023/11/20 05:42:32;;;;;;;4.10;1.63;;;;;;;7.60;64.43;100413.88;5005311;28;20044;-68
2023/11/20 05:44:57;;;;;;;4.38;1.73;;;;;;;7.56;64.53;100414.00;5032081;28;20048;-68
2023/11/20 05:47:23;;;;;;;5.82;1.80;;;;;;;7.60;64.33;100413.00;5023169;28;20042;-66
2023/11/20 05:49:51;;;;;;;6.88;1.75;;;;;;;7.65;64.40;100424.97;5027379;28;20119;-65
2023/11/20 05:52:16;;;;;;;6.13;1.60;;;;;;;7.63;64.04;100424.16;5029154;28;20041;-66
2023/11/20 05:54:43;;;;;;;23.67;1.25;;;;;;;7.53;64.42;100425.34;5019621;28;20041;-69
2023/11/20 05:57:09;;;;;;;8.35;1.25;;;;;;;7.61;64.41;100425.97;5028680;28;20044;-69
2023/11/20 05:59:34;;;;;;;5.05;1.02;;;;;;;7.66;64.12;100421.44;5023166;28;20435;-69
2023/11/20 06:02:00;;;;;;;2.70;0.77;;;;;;;7.69;64.15;100421.34;5033381;28;20036;-72
2023/11/20 06:04:26;;;;;;;2.08;0.80;;;;;;;7.77;64.12;100422.84;5027329;28;20045;-71
2023/11/20 06:06:53;;;;;;;1.92;0.43;;;;;;;7.74;63.76;100424.63;5033910;28;20028;-72
2023/11/20 06:09:19;;;;;;;2.92;0.82;;;;;;;7.70;63.94;100417.84;5027762;28;20422;-72
2023/11/20 06:11:49;;;;;;;2.78;1.17;;;;;;;7.68;63.77;100424.84;5032856;28;20060;-72
2023/11/20 06:14:15;;;;;;;2.50;1.13;;;;;;;7.71;63.92;100429.97;5027505;28;20143;-71
2023/11/20 06:16:41;;;;;;;2.72;0.88;;;;;;;7.74;64.09;100432.44;5026826;28;20434;-68
2023/11/20 06:19:07;;;;;;;8.98;1.48;;;;;;;7.71;64.04;100437.75;5012739;28;20037;-69
2023/11/20 06:21:33;;;;;;;3.78;1.50;;;;;;;7.72;63.93;100436.84;5024769;28;20495;-67
2023/11/20 06:23:58;;;;;;;2.58;1.00;;;;;;;7.78;63.96;100442.72;5031018;28;20358;-72
2023/11/20 06:26:25;;;;;;;5.35;1.95;;;;;;;7.78;64.06;100432.31;5028989;28;20202;-67
2023/11/20 06:28:51;;;;;;;4.72;1.30;;;;;;;7.78;63.87;100432.31;5025408;28;20041;-70
2023/11/20 06:31:17;;;;;;;3.30;1.45;;;;;;;7.69;63.92;100431.75;5030653;28;20041;-69
2023/11/20 06:33:42;;;;;;;4.20;0.95;;;;;;;7.67;64.30;100438.78;5027107;28;20037;-68
2023/11/20 06:36:09;;;;;;;3.08;1.02;;;;;;;7.66;63.66;100446.63;5029058;28;20414;-70
2023/11/20 06:38:35;;;;;;;4.60;1.48;;;;;;;7.59;63.98;100445.13;5027307;28;20043;-72
2023/11/20 06:41:04;;;;;;;5.18;1.17;;;;;;;7.61;64.14;100446.78;5030430;28;20036;-70
2023/11/20 06:43:30;;;;;;;5.28;0.95;;;;;;;7.63;64.09;100452.78;5023230;28;20538;-72
2023/11/20 06:45:56;;;;;;;4.82;1.13;;;;;;;7.62;63.88;100451.06;5007356;28;20041;-70
2023/11/20 06:48:21;;;;;;;5.05;1.00;;;;;;;7.62;63.91;100451.06;5023346;28;20057;-71
2023/11/20 06:50:47;;;;;;;5.55;0.85;;;;;;;7.63;63.96;100460.56;5029367;28;20452;-72
2023/11/20 06:53:12;;;;;;;3.13;0.70;;;;;;;7.65;64.36;100456.19;5027813;28;20235;-70
2023/11/20 06:55:39;;;;;;;4.32;0.68;;;;;;;7.63;64.23;100460.56;5027044;28;20162;-72
2023/11/20 06:58:04;;;;;;;3.40;0.60;;;;;;;7.63;64.11;100460.56;5029081;28;20406;-69
2023/11/20 07:00:30;;;;;;;2.67;0.70;;;;;;;7.64;63.80;100470.06;5024799;28;20032;-67
2023/11/20 07:03:44;;;;;;;3.63;1.00;;;;;;;7.63;63.98;100465.78;5011911;28;20094;-70
2023/11/20 07:06:17;;;;;;;2.60;0.63;;;;;;;7.61;63.89;100462.38;5029762;28;20499;-70
2023/11/20 07:08:42;;;;;;;4.32;0.88;;;;;;;7.61;64.03;100464.97;5023449;28;20043;-70
2023/11/20 07:11:09;;;;;;;3.50;1.42;;;;;;;7.59;63.86;100469.38;5029226;28;20044;-71
2023/11/20 07:13:34;;;;;;;2.47;0.85;;;;;;;7.60;64.35;100465.03;5021805;28;20128;-69
2023/11/20 07:16:00;;;;;;;3.80;1.33;;;;;;;7.63;64.18;100472.75;5028926;28;20036;-69
2023/11/20 07:18:26;;;;;;;5.50;1.10;;;;;;;7.62;64.04;100476.22;5018683;28;20032;-71
2023/11/20 07:20:54;;;;;;;4.47;1.30;;;;;;;7.60;64.10;100471.09;5029847;28;20138;-72
2023/11/20 07:23:20;;;;;;;4.60;1.30;;;;;;;7.61;64.20;100471.94;5025845;28;20044;-68
2023/11/20 07:25:45;;;;;;;4.57;1.65;;;;;;;7.56;64.09;100466.91;5023480;28;20044;-67
2023/11/20 07:28:11;;;;;;;2.92;0.88;;;;;;;7.53;64.28;100467.81;5027221;28;20339;-66
2023/11/20 07:30:37;;;;;;;3.65;1.23;;;;;;;7.55;64.53;100475.59;5003898;28;20699;-66
2023/11/20 07:33:03;;;;;;;4.70;1.17;;;;;;;7.65;64.29;100474.38;5026899;28;20040;-66
2023/11/20 07:35:28;;;;;;;5.80;1.40;;;;;;;7.68;64.09;100476.03;5022908;28;20068;-66
2023/11/20 07:37:54;;;;;;;5.57;1.42;;;;;;;7.71;64.29;100479.38;5027863;28;20032;-67
2023/11/20 07:40:19;;;;;;;5.57;1.50;;;;;;;7.79;64.35;100478.25;5011161;28;20075;-66
2023/11/20 07:42:46;;;;;;;4.97;1.30;;;;;;;7.79;63.86;100483.47;5021361;28;20330;-63
2023/11/20 07:45:12;;;;;;;8.07;1.70;;;;;;;7.73;63.80;100479.31;5029798;28;20082;-64
2023/11/20 07:47:39;;;;;;;6.13;1.88;;;;;;;7.72;64.07;100482.81;5020550;28;20040;-63
2023/11/20 07:50:05;;;;;;;7.30;1.65;;;;;;;7.70;64.04;100480.28;5028319;28;20028;-65
2023/11/20 07:52:32;;;;;;;3.50;1.10;;;;;;;7.70;64.42;100485.47;5025634;28;20055;-65
2023/11/20 07:54:58;;;;;;;5.35;1.40;;;;;;;7.73;64.09;100485.38;5029206;28;20025;-65
2023/11/20 07:57:26;;;;;;;4.63;1.27;;;;;;;7.81;64.04;100486.88;5026098;28;20112;-64
2023/11/20 07:59:52;;;;;;;4.93;1.70;;;;;;;7.83;63.86;100485.06;5027766;28;20120;-64
2023/11/20 08:02:19;;;;;;;4.78;1.27;;;;;;;7.86;64.13;100490.16;5027405;28;20021;-64
2023/11/20 08:04:45;;;;;;;4.53;1.40;;;;;;;7.80;63.92;100485.16;5014033;28;20025;-64
2023/11/20 08:07:13;;;;;;;6.60;1.40;;;;;;;7.77;64.14;100483.50;5024024;28;20491;-63
2023/11/20 08:09:39;;;;;;;8.15;2.03;;;;;;;7.79;64.14;100488.66;5021290;28;20085;-65
2023/11/20 08:12:05;;;;;;;5.10;1.23;;;;;;;7.81;64.01;100486.88;5027870;28;20068;-63
2023/11/20 08:14:32;;;;;;;6.35;1.77;;;;;;;7.73;63.99;100487.13;5037197;28;20351;-66
2023/11/20 08:16:58;;;;;;;8.20;2.45;;;;;;;7.72;64.23;100486.28;5024147;28;20063;-64
2023/11/20 08:19:24;;;;;;;4.00;0.95;;;;;;;7.73;64.60;100487.13;5025086;28;20036;-64
2023/11/20 08:21:51;;;;;;;4.35;1.02;;;;;;;7.70;64.88;100485.47;5022671;28;20506;-65
2023/11/20 08:24:19;;;;;;;4.18;1.25;;;;;;;7.83;64.66;100490.28;5026910;28;20186;-64
2023/11/20 08:26:48;;;;;;;4.97;1.10;;;;;;;7.83;64.44;100490.28;5022074;28;20123;-63
2023/11/20 08:29:17;;;;;;;2.63;0.90;;;;;;;7.88;64.53;100506.56;5027334;28;20468;-65
2023/11/20 08:31:46;;;;;;;7.82;1.42;;;;;;;7.92;64.51;100501.19;5017169;28;20040;-65
2023/11/20 08:34:12;;;;;;;3.03;0.98;;;;;;;7.94;64.35;100503.75;5021668;28;20048;-65
2023/11/20 08:36:39;;;;;;;2.42;1.00;;;;;;;7.92;64.00;100496.00;5021889;28;20029;-65
2023/11/20 08:39:11;;;;;;;4.25;0.98;;;;;;;7.89;64.17;100495.25;5041301;28;20148;-64
2023/11/20 08:41:40;;;;;;;2.92;0.50;;;;;;;7.80;64.05;100501.63;5022407;28;20106;-66
2023/11/20 08:44:06;;;;;;;1.67;0.55;;;;;;;7.81;64.36;100498.13;5027585;28;20063;-66
2023/11/20 08:46:32;;;;;;;3.35;0.52;;;;;;;7.85;64.22;100493.66;5028141;28;20068;-66
2023/11/20 08:48:57;;;;;;;1.25;0.20;;;;;;;7.81;64.36;100490.31;5029963;28;20473;-65
2023/11/20 08:51:23;;;;;;;1.00;0.30;;;;;;;7.88;64.62;100497.00;5029467;28;20040;-66
2023/11/20 08:53:48;;;;;;;3.17;0.80;;;;;;;7.88;64.74;100506.56;5026677;28;20076;-65
2023/11/20 08:56:14;;;;;;;1.63;0.43;;;;;;;7.99;64.37;100507.03;5033403;28;20032;-65
2023/11/20 08:58:39;;;;;;;1.20;0.47;;;;;;;7.96;64.17;100504.56;5025290;28;20341;-65
2023/11/20 09:01:05;;;;;;;1.52;0.30;;;;;;;7.90;64.47;100502.16;5031953;28;20508;-65
2023/11/20 09:03:31;;;;;;;1.08;0.47;;;;;;;7.96;64.85;100507.16;5025575;28;20456;-66
2023/11/20 09:05:58;;;;;;;4.70;2.35;;;;;;;8.01;64.88;100510.44;5019757;28;20040;-65
2023/11/20 09:08:24;;;;;;;1.77;0.60;;;;;;;7.99;64.89;100512.25;5029165;28;20045;-66
2023/11/20 09:10:49;;;;;;;1.13;0.40;;;;;;;7.93;64.93;100507.25;5025642;28;21359;-66
2023/11/20 09:13:15;;;;;;;0.98;0.10;;;;;;;7.94;65.18;100504.59;5029585;28;20168;-66
2023/11/20 09:15:41;;;;;;;0.30;0.10;;;;;;;7.49;66.80;100517.38;5026986;28;20052;-66
2023/11/20 09:18:06;;;;;;;0.15;0.00;;;;;;;7.62;66.38;100518.69;5030886;28;20032;-66
2023/11/20 09:20:34;;;;;;;0.45;0.00;;;;;;;7.74;65.84;100514.84;5028770;28;20120;-65
2023/11/20 09:23:00;;;;;;;0.22;0.00;;;;;;;7.76;65.77;100519.97;5030270;28;20037;-65
2023/11/20 09:25:26;;;;;;;0.25;0.00;;;;;;;7.58;66.27;100508.44;5031024;28;20033;-65
2023/11/20 09:27:51;;;;;;;1.17;0.00;;;;;;;7.59;66.71;100518.81;5025002;28;20067;-66
2023/11/20 09:30:17;;;;;;;0.30;0.00;;;;;;;7.39;66.96;100518.56;5030315;28;20033;-65
2023/11/20 09:32:44;;;;;;;0.10;0.00;;;;;;;7.25;67.01;100519.03;5026410;28;20762;-64
2023/11/20 09:35:10;;;;;;;0.52;0.00;;;;;;;7.49;66.92;100517.38;5030465;28;20072;-65
2023/11/20 09:37:36;;;;;;;0.20;0.00;;;;;;;7.33;67.14;100520.47;5024689;28;20123;-65
2023/11/20 09:40:04;;;;;;;0.08;0.00;;;;;;;7.08;68.07;100516.94;5027019;28;20045;-65
2023/11/20 09:42:30;;;;;;;0.17;0.00;;;;;;;7.18;67.67;100523.56;5032446;28;20039;-65
2023/11/20 09:44:59;;;;;;;0.98;0.20;;;;;;;7.23;67.41;100526.03;5027761;28;20116;-66
2023/11/20 09:47:28;;;;;;;0.25;0.00;;;;;;;7.24;67.34;100523.34;5027492;28;20359;-65
2023/11/20 09:49:56;;;;;;;1.15;0.00;;;;;;;7.09;67.53;100526.47;5027057;28;20060;-65
2023/11/20 09:52:24;;;;;;;0.10;0.00;;;;;;;7.27;67.23;100528.47;5029637;28;20045;-65
2023/11/20 09:54:55;;;;;;;0.20;0.00;;;;;;;7.16;67.27;100520.16;5025631;28;20032;-65
2023/11/20 09:57:25;;;;;;;0.45;0.00;;;;;;;7.04;67.21;100515.34;5027195;28;20041;-66
2023/11/20 09:59:50;;;;;;;0.90;0.10;;;;;;;6.78;68.35;100526.53;5023606;28;20064;-65
2023/11/20 10:02:17;;;;;;;0.52;0.00;;;;;;;7.07;67.49;100525.66;5030318;28;20650;-66
2023/11/20 10:04:44;;;;;;;0.35;0.10;;;;;;;7.11;67.08;100516.88;5024656;28;20203;-66
2023/11/20 10:07:12;;;;;;;0.13;0.10;;;;;;;7.23;66.88;100528.63;5029582;28;20577;-65
2023/11/20 10:09:44;;;;;;;1.60;0.40;;;;;;;7.14;67.07;100529.75;5025259;28;20864;-65
2023/11/20 10:12:12;;;;;;;0.45;0.22;;;;;;;7.16;66.94;100525.38;5029775;28;20060;-64
2023/11/20 10:14:39;;;;;;;0.20;0.10;;;;;;;7.19;67.07;100522.66;5024490;28;20414;-65
2023/11/20 10:17:05;;;;;;;0.20;0.05;;;;;;;7.40;66.50;100518.53;5031774;28;20082;-66
2023/11/20 10:19:30;;;;;;;2.67;0.20;;;;;;;7.42;66.19;100528.88;5024102;28;20651;-65
2023/11/20 10:21:58;;;;;;;0.10;0.00;;;;;;;7.03;67.33;100524.88;5017923;28;20041;-64
2023/11/20 10:24:24;;;;;;;0.43;0.00;;;;;;;6.91;67.36;100527.88;5029260;28;20040;-64
2023/11/20 10:26:51;;;;;;;0.70;0.17;;;;;;;7.30;66.68;100524.91;5023726;28;21311;-63
2023/11/20 10:29:16;;;;;;;0.00;0.00;;;;;;;7.07;66.69;100526.50;5025875;28;20040;-67
2023/11/20 10:31:46;;;;;;;0.98;0.10;;;;;;;7.31;66.46;100524.00;5025537;28;20098;-63
2023/11/20 10:34:11;;;;;;;0.35;0.35;;;;;;;6.81;67.55;100519.47;5029605;28;20482;-64
2023/11/20 10:36:38;;;;;;;1.95;0.10;;;;;;;6.77;68.05;100523.06;5026805;28;20052;-63
2023/11/20 10:39:05;;;;;;;0.70;0.10;;;;;;;7.08;67.00;100516.94;5028508;28;20040;-64
2023/11/20 10:41:31;;;;;;;1.65;0.10;;;;;;;7.27;66.47;100522.44;5026836;28;20036;-64
2023/11/20 10:43:59;;;;;;;0.40;0.00;;;;;;;7.23;66.73;100523.41;5025175;28;21146;-66
2023/11/20 10:46:28;;;;;;;2.55;0.10;;;;;;;7.67;65.46;100528.97;5030028;28;20126;-64
2023/11/20 10:48:54;;;;;;;2.70;0.00;;;;;;;7.72;65.04;100535.69;5011268;28;20044;-63
2023/11/20 10:51:22;;;;;;;0.40;0.10;;;;;;;7.76;64.88;100527.78;5029219;28;20094;-64
2023/11/20 10:53:58;;;;;;;0.50;0.20;;;;;;;7.29;65.49;100531.03;5019739;28;20037;-64
2023/11/20 10:56:26;;;;;;;0.28;0.20;;;;;;;7.40;65.91;100533.25;5026452;28;20103;-65
2023/11/20 10:58:54;;;;;;;0.35;0.10;;;;;;;7.30;65.86;100532.72;5023529;28;20036;-64
2023/11/20 11:01:19;;;;;;;1.50;0.10;;;;;;;7.53;65.48;100532.84;5009626;28;20040;-63
2023/11/20 11:03:45;;;;;;;0.60;0.20;;;;;;;7.35;66.35;100527.38;5024142;28;20521;-64
2023/11/20 11:06:12;;;;;;;1.13;0.20;;;;;;;7.06;66.90;100529.13;5030260;28;20032;-64
2023/11/20 11:08:38;;;;;;;4.00;0.30;;;;;;;7.21;66.40;100533.00;5022743;28;20067;-63
2023/11/20 11:11:04;;;;;;;1.23;0.28;;;;;;;7.08;66.52;100529.94;5027877;28;20463;-64
2023/11/20 11:13:33;;;;;;;2.65;0.50;;;;;;;7.52;65.32;100533.72;5010290;28;20043;-63
2023/11/20 11:16:02;;;;;;;1.30;0.30;;;;;;;7.47;65.23;100529.59;5024111;28;20330;-65
2023/11/20 11:18:33;;;;;;;1.73;0.35;;;;;;;7.40;65.67;100533.25;5026517;28;20048;-64
2023/11/20 11:20:59;;;;;;;0.95;0.25;;;;;;;7.38;65.68;100529.84;5023482;28;20466;-65
2023/11/20 11:23:40;;;;;;;5.85;0.30;;;;;;;7.18;66.48;100535.72;5043026;28;20075;-64
2023/11/20 11:26:25;;;;;;;5.30;0.43;;;;;;;6.98;66.75;100529.38;5026896;28;20063;-66
2023/11/20 11:28:56;;;;;;;2.53;0.30;;;;;;;7.15;66.22;100526.25;5019496;28;20608;-65